createdAt,value
2018-08-11T00:00:48.515Z,18.72
2018-08-11T00:03:17.905Z,18.69
2018-08-11T00:05:47.315Z,18.64
2018-08-11T00:08:16.959Z,18.59
2018-08-11T00:10:46.426Z,18.55
2018-08-11T00:13:15.967Z,18.53
2018-08-11T00:15:45.747Z,18.49
2018-08-11T00:18:15.196Z,18.46
2018-08-11T00:20:44.602Z,18.46
2018-08-11T00:23:14.111Z,18.46
2018-08-11T00:25:43.587Z,18.48
2018-08-11T00:28:13.050Z,18.48
2018-08-11T00:30:42.526Z,18.47
2018-08-11T00:33:11.940Z,18.50
2018-08-11T00:35:41.332Z,18.53
2018-08-11T00:38:10.921Z,18.50
2018-08-11T00:40:40.328Z,18.45
2018-08-11T00:43:09.732Z,18.38
2018-08-11T00:45:39.180Z,18.29
2018-08-11T00:48:08.595Z,18.22
2018-08-11T00:50:37.978Z,18.15
2018-08-11T00:53:08.403Z,18.09
2018-08-11T00:55:37.735Z,18.06
2018-08-11T00:58:07.243Z,18.04
2018-08-11T01:00:36.703Z,18.00
2018-08-11T01:03:06.556Z,18.00
2018-08-11T01:05:35.978Z,17.97
2018-08-11T01:08:05.544Z,17.96
2018-08-11T01:10:34.950Z,17.93
2018-08-11T01:13:04.351Z,17.91
2018-08-11T01:15:33.772Z,17.90
2018-08-11T01:18:03.279Z,17.92
2018-08-11T01:20:32.727Z,17.94
2018-08-11T01:23:02.149Z,17.93
2018-08-11T01:25:31.786Z,17.87
2018-08-11T01:28:01.803Z,17.80
2018-08-11T01:30:31.618Z,17.72
2018-08-11T01:33:01.341Z,17.62
2018-08-11T01:35:30.957Z,17.54
2018-08-11T01:38:00.569Z,17.46
2018-08-11T01:40:30.334Z,17.38
2018-08-11T01:42:59.990Z,17.30
2018-08-11T01:45:29.736Z,17.23
2018-08-11T01:47:59.330Z,17.17
2018-08-11T01:50:29.124Z,17.12
2018-08-11T01:52:58.807Z,17.09
2018-08-11T01:55:28.438Z,17.06
2018-08-11T01:57:57.329Z,17.02
2018-08-11T02:00:27.089Z,16.97
2018-08-11T02:02:56.706Z,16.90
2018-08-11T02:05:26.459Z,16.82
2018-08-11T02:07:56.147Z,16.76
2018-08-11T02:10:25.771Z,16.71
2018-08-11T02:12:55.422Z,16.66
2018-08-11T02:15:25.053Z,16.58
2018-08-11T02:17:54.621Z,16.53
2018-08-11T02:20:24.277Z,16.51
2018-08-11T02:22:53.893Z,16.48
2018-08-11T02:25:23.601Z,16.46
2018-08-11T02:27:53.260Z,16.42
2018-08-11T02:30:22.914Z,16.41
2018-08-11T02:32:52.557Z,16.41
2018-08-11T02:35:22.182Z,16.46
2018-08-11T02:37:51.826Z,16.56
2018-08-11T02:40:21.490Z,16.67
2018-08-11T02:42:51.134Z,16.80
2018-08-11T02:45:20.806Z,16.89
2018-08-11T02:47:50.492Z,16.99
2018-08-11T02:50:20.110Z,17.08
2018-08-11T02:52:49.823Z,17.15
2018-08-11T02:55:19.421Z,17.22
2018-08-11T02:57:49.110Z,17.30
2018-08-11T03:00:18.778Z,17.35
2018-08-11T03:02:48.403Z,17.38
2018-08-11T03:05:18.010Z,17.41
2018-08-11T03:07:47.625Z,17.43
2018-08-11T03:10:17.241Z,17.44
2018-08-11T03:12:46.850Z,17.41
2018-08-11T03:15:16.526Z,17.34
2018-08-11T03:17:46.143Z,17.26
2018-08-11T03:20:16.050Z,17.18
2018-08-11T03:22:46.001Z,17.11
2018-08-11T03:25:15.617Z,17.09
2018-08-11T03:27:45.378Z,17.05
2018-08-11T03:30:15.105Z,17.02
2018-08-11T03:32:44.668Z,16.97
2018-08-11T03:35:14.321Z,16.91
2018-08-11T03:37:44.329Z,16.86
2018-08-11T03:40:13.947Z,16.84
2018-08-11T03:42:43.568Z,16.82
2018-08-11T03:45:13.235Z,16.81
2018-08-11T03:47:42.872Z,16.79
2018-08-11T03:50:12.573Z,16.77
2018-08-11T03:52:42.330Z,16.75
2018-08-11T03:55:12.095Z,16.75
2018-08-11T03:57:41.806Z,16.75
2018-08-11T04:00:12.730Z,16.78
2018-08-11T04:02:42.380Z,16.77
2018-08-11T04:05:12.081Z,16.78
2018-08-11T04:07:42.252Z,16.80
2018-08-11T04:10:11.857Z,16.84
2018-08-11T04:12:41.508Z,16.90
2018-08-11T04:15:11.543Z,16.99
2018-08-11T04:17:42.022Z,17.07
2018-08-11T04:20:12.942Z,17.16
2018-08-11T04:22:42.569Z,17.25
2018-08-11T04:25:12.213Z,17.35
2018-08-11T04:27:42.085Z,17.44
2018-08-11T04:30:12.414Z,17.52
2018-08-11T04:32:42.130Z,17.58
2018-08-11T04:35:11.741Z,17.64
2018-08-11T04:37:41.620Z,17.69
2018-08-11T04:40:11.276Z,17.71
2018-08-11T04:42:40.990Z,17.84
2018-08-11T04:45:10.642Z,18.35
2018-08-11T04:47:40.442Z,19.12
2018-08-11T04:50:10.174Z,19.51
2018-08-11T04:52:39.897Z,19.70
2018-08-11T04:55:09.527Z,19.80
2018-08-11T04:57:39.236Z,19.84
2018-08-11T05:00:09.031Z,19.77
2018-08-11T05:02:38.673Z,19.64
2018-08-11T05:05:09.157Z,19.54
2018-08-11T05:07:39.100Z,19.66
2018-08-11T05:10:09.411Z,19.89
2018-08-11T05:12:39.037Z,20.17
2018-08-11T05:15:09.045Z,20.14
2018-08-11T05:17:38.653Z,20.04
2018-08-11T05:20:08.665Z,19.94
2018-08-11T05:22:38.373Z,19.85
2018-08-11T05:25:07.963Z,19.76
2018-08-11T05:27:37.617Z,19.60
2018-08-11T05:30:08.393Z,19.47
2018-08-11T05:32:38.337Z,19.36
2018-08-11T05:35:08.008Z,19.25
2018-08-11T05:37:37.813Z,19.15
2018-08-11T05:40:07.387Z,19.09
2018-08-11T05:42:37.038Z,19.07
2018-08-11T05:45:07.053Z,19.12
2018-08-11T05:47:36.689Z,19.14
2018-08-11T05:50:06.634Z,19.14
2018-08-11T05:52:36.761Z,19.18
2018-08-11T05:55:06.769Z,19.22
2018-08-11T05:57:36.500Z,19.23
2018-08-11T06:00:09.289Z,19.27
2018-08-11T06:02:39.245Z,19.37
2018-08-11T06:05:09.281Z,19.48
2018-08-11T06:07:38.972Z,19.56
2018-08-11T06:10:09.964Z,19.61
2018-08-11T06:12:40.182Z,19.65
2018-08-11T06:15:10.023Z,19.72
2018-08-11T06:17:39.698Z,19.84
2018-08-11T06:20:10.311Z,19.97
2018-08-11T06:22:39.916Z,20.04
2018-08-11T06:25:11.551Z,20.04
2018-08-11T06:27:41.566Z,20.03
2018-08-11T06:30:11.603Z,20.10
2018-08-11T06:32:41.222Z,20.21
2018-08-11T06:35:10.850Z,20.39
2018-08-11T06:37:40.501Z,20.66
2018-08-11T06:40:10.431Z,21.21
2018-08-11T06:42:40.009Z,21.77
2018-08-11T06:45:09.726Z,22.24
2018-08-11T06:47:39.336Z,22.59
2018-08-11T06:50:09.058Z,23.88
2018-08-11T06:52:37.937Z,25.57
2018-08-11T06:55:07.938Z,26.95
2018-08-11T06:57:37.558Z,28.16
2018-08-11T07:00:07.318Z,28.67
2018-08-11T07:02:36.956Z,28.67
2018-08-11T07:05:07.018Z,28.54
2018-08-11T07:07:36.624Z,27.96
2018-08-11T07:10:06.276Z,27.32
2018-08-11T07:12:35.925Z,26.69
2018-08-11T07:15:06.195Z,26.19
2018-08-11T07:17:35.822Z,25.84
2018-08-11T07:20:05.529Z,25.99
2018-08-11T07:22:35.134Z,26.40
2018-08-11T07:25:05.347Z,26.81
2018-08-11T07:27:34.965Z,27.10
2018-08-11T07:30:04.950Z,27.23
2018-08-11T07:32:34.599Z,27.07
2018-08-11T07:35:04.235Z,26.85
2018-08-11T07:37:33.952Z,26.54
2018-08-11T07:40:03.637Z,26.27
2018-08-11T07:42:33.262Z,26.16
2018-08-11T07:45:03.147Z,26.14
2018-08-11T07:47:32.816Z,26.25
2018-08-11T07:50:02.521Z,26.33
2018-08-11T07:52:32.170Z,26.49
2018-08-11T07:55:01.756Z,26.83
2018-08-11T07:57:31.385Z,27.23
2018-08-11T08:00:01.022Z,27.41
2018-08-11T08:02:30.659Z,27.43
2018-08-11T08:05:00.252Z,27.41
2018-08-11T08:07:29.834Z,27.29
2018-08-11T08:09:59.454Z,26.92
2018-08-11T08:12:29.169Z,26.54
2018-08-11T08:14:58.807Z,26.42
2018-08-11T08:17:28.799Z,26.28
2018-08-11T08:19:58.497Z,26.02
2018-08-11T08:22:28.080Z,25.74
2018-08-11T08:24:57.663Z,25.57
2018-08-11T08:27:27.261Z,25.37
2018-08-11T08:29:56.898Z,25.12
2018-08-11T08:32:26.579Z,24.92
2018-08-11T08:34:56.253Z,24.86
2018-08-11T08:37:25.896Z,24.97
2018-08-11T08:39:55.643Z,25.04
2018-08-11T08:42:25.250Z,25.27
2018-08-11T08:44:55.000Z,25.49
2018-08-11T08:47:24.858Z,25.75
2018-08-11T08:49:54.520Z,25.89
2018-08-11T08:52:24.195Z,25.92
2018-08-11T08:54:53.821Z,26.12
2018-08-11T08:57:23.450Z,26.57
2018-08-11T08:59:53.075Z,27.02
2018-08-11T09:02:22.793Z,27.32
2018-08-11T09:04:52.560Z,27.29
2018-08-11T09:07:22.231Z,26.92
2018-08-11T09:09:52.298Z,26.43
2018-08-11T09:12:22.002Z,26.41
2018-08-11T09:14:51.700Z,26.55
2018-08-11T09:17:21.325Z,26.75
2018-08-11T09:19:51.042Z,27.34
2018-08-11T09:22:20.700Z,27.88
2018-08-11T09:24:50.645Z,28.25
2018-08-11T09:27:20.243Z,29.05
2018-08-11T09:29:49.878Z,29.43
2018-08-11T09:32:19.885Z,29.73
2018-08-11T09:34:49.502Z,29.89
2018-08-11T09:37:19.210Z,30.04
2018-08-11T09:39:48.822Z,29.91
2018-08-11T09:42:18.402Z,29.57
2018-08-11T09:44:47.988Z,29.19
2018-08-11T09:47:17.573Z,29.18
2018-08-11T09:49:47.162Z,29.44
2018-08-11T09:52:16.827Z,29.31
2018-08-11T09:54:46.554Z,29.17
2018-08-11T09:57:16.169Z,28.83
2018-08-11T09:59:45.738Z,28.28
2018-08-11T10:02:20.774Z,27.91
2018-08-11T10:04:50.362Z,27.57
2018-08-11T10:07:19.992Z,27.22
2018-08-11T10:09:49.729Z,26.90
2018-08-11T10:12:19.323Z,26.46
2018-08-11T10:14:48.908Z,26.07
2018-08-11T10:17:18.965Z,25.86
2018-08-11T10:19:48.513Z,25.87
2018-08-11T10:22:18.139Z,25.92
2018-08-11T10:24:48.053Z,25.89
2018-08-11T10:27:17.614Z,25.89
2018-08-11T10:29:47.206Z,26.34
2018-08-11T10:32:16.840Z,26.89
2018-08-11T10:34:46.411Z,27.23
2018-08-11T10:37:16.005Z,27.37
2018-08-11T10:39:45.689Z,27.25
2018-08-11T10:42:15.237Z,26.78
2018-08-11T10:44:44.818Z,26.24
2018-08-11T10:47:14.663Z,25.98
2018-08-11T10:49:44.206Z,25.92
2018-08-11T10:52:13.814Z,26.03
2018-08-11T10:54:43.422Z,26.26
2018-08-11T10:57:12.986Z,26.50
2018-08-11T10:59:42.593Z,26.53
2018-08-11T11:02:12.198Z,26.19
2018-08-11T11:04:41.755Z,25.81
2018-08-11T11:07:11.364Z,25.70
2018-08-11T11:09:41.054Z,25.85
2018-08-11T11:12:10.689Z,26.00
2018-08-11T11:14:40.273Z,26.02
2018-08-11T11:17:10.154Z,26.05
2018-08-11T11:19:39.760Z,25.89
2018-08-11T11:22:09.315Z,25.72
2018-08-11T11:24:38.923Z,25.79
2018-08-11T11:27:08.511Z,25.68
2018-08-11T11:29:38.116Z,25.48
2018-08-11T11:32:07.834Z,25.38
2018-08-11T11:34:37.415Z,25.27
2018-08-11T11:37:07.030Z,25.16
2018-08-11T11:39:36.632Z,24.92
2018-08-11T11:42:06.455Z,24.67
2018-08-11T11:44:36.051Z,24.38
2018-08-11T11:47:05.866Z,24.07
2018-08-11T11:49:35.438Z,23.78
2018-08-11T11:52:05.093Z,23.60
2018-08-11T11:54:34.736Z,23.44
2018-08-11T11:57:04.335Z,23.34
2018-08-11T11:59:33.930Z,23.31
2018-08-11T12:02:03.934Z,23.39
2018-08-11T12:04:33.514Z,23.41
2018-08-11T12:07:03.194Z,23.47
2018-08-11T12:09:32.785Z,23.51
2018-08-11T12:12:02.370Z,23.73
2018-08-11T12:14:31.992Z,24.00
2018-08-11T12:17:01.961Z,24.14
2018-08-11T12:19:31.621Z,24.13
2018-08-11T12:22:01.223Z,24.08
2018-08-11T12:24:30.874Z,24.03
2018-08-11T12:27:00.473Z,24.00
2018-08-11T12:29:30.067Z,23.98
2018-08-11T12:31:59.667Z,23.89
2018-08-11T12:34:29.253Z,23.77
2018-08-11T12:36:58.857Z,23.69
2018-08-11T12:39:28.671Z,23.68
2018-08-11T12:41:58.266Z,23.62
2018-08-11T12:44:27.849Z,23.60
2018-08-11T12:46:57.493Z,23.61
2018-08-11T12:49:27.111Z,23.61
2018-08-11T12:51:56.737Z,23.57
2018-08-11T12:54:26.405Z,23.48
2018-08-11T12:56:56.010Z,23.53
2018-08-11T12:59:25.642Z,23.61
2018-08-11T13:01:55.274Z,23.60
2018-08-11T13:04:24.881Z,23.59
2018-08-11T13:06:54.483Z,23.55
2018-08-11T13:09:24.121Z,23.47
2018-08-11T13:11:53.756Z,23.55
2018-08-11T13:14:23.395Z,23.70
2018-08-11T13:16:53.402Z,23.77
2018-08-11T13:19:22.990Z,23.79
2018-08-11T13:21:52.755Z,23.81
2018-08-11T13:24:22.443Z,23.78
2018-08-11T13:26:52.052Z,23.73
2018-08-11T13:29:21.650Z,23.64
2018-08-11T13:31:51.269Z,23.57
2018-08-11T13:34:22.664Z,23.54
2018-08-11T13:36:52.305Z,23.55
2018-08-11T13:39:21.901Z,23.55
2018-08-11T13:41:51.578Z,23.52
2018-08-11T13:44:21.314Z,23.52
2018-08-11T13:46:50.929Z,23.58
2018-08-11T13:49:20.538Z,23.62
2018-08-11T13:51:50.261Z,23.62
2018-08-11T13:54:19.932Z,23.63
2018-08-11T13:56:49.608Z,23.69
2018-08-11T13:59:19.213Z,23.77
2018-08-11T14:01:48.786Z,23.83
2018-08-11T14:04:18.402Z,23.88
2018-08-11T14:06:48.334Z,23.81
2018-08-11T14:09:17.964Z,23.67
2018-08-11T14:11:47.577Z,23.63
2018-08-11T14:14:17.249Z,23.52
2018-08-11T14:16:46.916Z,23.37
2018-08-11T14:19:16.537Z,23.36
2018-08-11T14:21:46.169Z,23.44
2018-08-11T14:24:15.799Z,23.63
2018-08-11T14:26:45.441Z,23.86
2018-08-11T14:29:15.101Z,24.00
2018-08-11T14:31:44.783Z,24.04
2018-08-11T14:34:14.442Z,23.98
2018-08-11T14:36:44.082Z,23.84
2018-08-11T14:39:13.854Z,23.74
2018-08-11T14:41:43.468Z,23.73
2018-08-11T14:44:13.190Z,23.76
2018-08-11T14:46:43.067Z,23.73
2018-08-11T14:49:12.738Z,23.66
2018-08-11T14:51:42.424Z,23.62
2018-08-11T14:54:12.102Z,23.61
2018-08-11T14:56:41.774Z,23.58
2018-08-11T14:59:11.417Z,23.56
2018-08-11T15:01:41.133Z,23.59
2018-08-11T15:04:10.952Z,23.65
2018-08-11T15:06:40.651Z,23.72
2018-08-11T15:09:11.498Z,23.74
2018-08-11T15:11:41.638Z,23.73
2018-08-11T15:14:11.312Z,23.68
2018-08-11T15:16:40.946Z,23.61
2018-08-11T15:19:10.630Z,23.51
2018-08-11T15:21:40.210Z,23.53
2018-08-11T15:24:10.107Z,23.62
2018-08-11T15:26:39.763Z,23.62
2018-08-11T15:29:10.072Z,23.50
2018-08-11T15:31:39.751Z,23.34
2018-08-11T15:34:09.560Z,23.26
2018-08-11T15:36:39.314Z,23.27
2018-08-11T15:39:11.742Z,23.30
2018-08-11T15:41:41.385Z,23.33
2018-08-11T15:44:10.985Z,23.30
2018-08-11T15:46:40.657Z,23.25
2018-08-11T15:49:10.285Z,23.19
2018-08-11T15:51:40.120Z,23.16
2018-08-11T15:54:10.265Z,23.15
2018-08-11T15:56:40.135Z,23.20
2018-08-11T15:59:16.511Z,23.20
2018-08-11T16:01:46.139Z,23.19
2018-08-11T16:04:15.763Z,23.14
2018-08-11T16:06:45.399Z,23.02
2018-08-11T16:09:15.042Z,22.96
2018-08-11T16:11:44.726Z,22.94
2018-08-11T16:14:14.398Z,22.96
2018-08-11T16:16:44.232Z,22.91
2018-08-11T16:19:13.855Z,22.87
2018-08-11T16:21:43.441Z,22.79
2018-08-11T16:24:13.140Z,22.76
2018-08-11T16:26:42.859Z,22.81
2018-08-11T16:29:12.691Z,22.90
2018-08-11T16:31:42.342Z,22.91
2018-08-11T16:34:11.988Z,22.85
2018-08-11T16:36:41.717Z,22.82
2018-08-11T16:39:11.552Z,22.81
2018-08-11T16:41:41.206Z,22.82
2018-08-11T16:44:10.903Z,22.78
2018-08-11T16:46:40.575Z,22.63
2018-08-11T16:49:10.231Z,22.46
2018-08-11T16:51:39.903Z,22.39
2018-08-11T16:54:09.603Z,22.40
2018-08-11T16:56:38.457Z,22.43
2018-08-11T16:59:07.411Z,22.40
2018-08-11T17:01:36.281Z,22.32
2018-08-11T17:04:05.992Z,22.24
2018-08-11T17:06:34.995Z,22.18
2018-08-11T17:09:07.450Z,22.12
2018-08-11T17:11:37.123Z,22.07
2018-08-11T17:14:07.363Z,22.02
2018-08-11T17:16:37.371Z,21.93
2018-08-11T17:19:07.253Z,21.79
2018-08-11T17:21:36.209Z,21.63
2018-08-11T17:24:05.141Z,21.45
2018-08-11T17:26:33.991Z,21.28
2018-08-11T17:29:02.822Z,21.16
2018-08-11T17:31:31.842Z,21.08
2018-08-11T17:34:03.538Z,20.98
2018-08-11T17:36:33.162Z,20.92
2018-08-11T17:39:02.030Z,20.89
2018-08-11T17:41:30.853Z,20.87
2018-08-11T17:44:00.474Z,20.87
2018-08-11T17:46:29.369Z,20.85
2018-08-11T17:48:59.042Z,20.84
2018-08-11T17:51:28.631Z,20.85
2018-08-11T17:53:58.428Z,20.85
2018-08-11T17:56:28.089Z,20.84
2018-08-11T17:58:57.714Z,20.78
2018-08-11T18:01:27.368Z,20.73
2018-08-11T18:03:56.990Z,20.65
2018-08-11T18:06:26.619Z,20.54
2018-08-11T18:08:56.218Z,20.43
2018-08-11T18:11:25.782Z,20.34
2018-08-11T18:13:54.671Z,20.27
2018-08-11T18:16:23.833Z,20.22
2018-08-11T18:18:52.805Z,20.20
2018-08-11T18:21:21.621Z,20.18
2018-08-11T18:23:50.458Z,20.15
2018-08-11T18:26:19.298Z,20.12
2018-08-11T18:28:48.139Z,20.13
2018-08-11T18:31:17.003Z,20.05
2018-08-11T18:33:45.868Z,19.89
2018-08-11T18:36:14.708Z,19.73
2018-08-11T18:38:43.617Z,19.61
2018-08-11T18:41:13.325Z,19.53
2018-08-11T18:43:42.981Z,19.42
2018-08-11T18:46:12.660Z,19.31
2018-08-11T18:48:42.625Z,19.24
2018-08-11T18:51:12.249Z,19.19
2018-08-11T18:53:41.895Z,19.15
2018-08-11T18:56:11.621Z,19.08
2018-08-11T18:58:41.354Z,19.05
2018-08-11T19:01:11.034Z,19.06
2018-08-11T19:03:40.657Z,19.06
2018-08-11T19:06:10.275Z,19.03
2018-08-11T19:08:40.176Z,18.96
2018-08-11T19:11:09.844Z,18.92
2018-08-11T19:13:39.582Z,18.90
2018-08-11T19:16:09.494Z,18.88
2018-08-11T19:18:39.457Z,18.90
2018-08-11T19:21:09.286Z,18.91
2018-08-11T19:23:39.016Z,18.87
2018-08-11T19:26:09.007Z,18.85
2018-08-11T19:28:38.666Z,18.78
2018-08-11T19:31:08.378Z,18.73
2018-08-11T19:33:38.151Z,18.64
2018-08-11T19:36:08.203Z,18.57
2018-08-11T19:38:38.104Z,18.48
2018-08-11T19:41:07.851Z,18.40
2018-08-11T19:43:37.498Z,18.28
2018-08-11T19:46:07.242Z,18.18
2018-08-11T19:48:36.964Z,18.10
2018-08-11T19:51:07.223Z,18.01
2018-08-11T19:53:37.050Z,17.93
2018-08-11T19:56:06.750Z,17.85
2018-08-11T19:58:36.437Z,17.79
2018-08-11T20:01:06.108Z,17.73
2018-08-11T20:03:35.773Z,17.66
2018-08-11T20:06:05.582Z,17.57
2018-08-11T20:08:35.227Z,17.50
2018-08-11T20:11:04.829Z,17.47
2018-08-11T20:13:34.568Z,17.42
2018-08-11T20:16:04.246Z,17.36
2018-08-11T20:18:33.891Z,17.31
2018-08-11T20:21:03.636Z,17.30
2018-08-11T20:23:33.363Z,17.28
2018-08-11T20:26:03.045Z,17.27
2018-08-11T20:28:32.718Z,17.26
2018-08-11T20:31:02.624Z,17.21
2018-08-11T20:33:32.332Z,17.16
2018-08-11T20:36:01.970Z,17.10
2018-08-11T20:38:31.837Z,17.04
2018-08-11T20:41:01.546Z,16.98
2018-08-11T20:43:31.214Z,16.95
2018-08-11T20:46:00.930Z,16.97
2018-08-11T20:48:30.584Z,16.97
2018-08-11T20:51:00.235Z,16.96
2018-08-11T20:53:29.942Z,16.94
2018-08-11T20:55:59.967Z,16.90
2018-08-11T20:58:29.682Z,16.88
2018-08-11T21:00:59.654Z,16.89
2018-08-11T21:03:29.309Z,16.86
2018-08-11T21:05:59.084Z,16.86
2018-08-11T21:08:28.787Z,16.86
2018-08-11T21:10:58.502Z,16.81
2018-08-11T21:13:28.238Z,16.76
2018-08-11T21:15:57.882Z,16.72
2018-08-11T21:18:27.546Z,16.68
2018-08-11T21:20:57.363Z,16.63
2018-08-11T21:23:27.106Z,16.60
2018-08-11T21:25:56.863Z,16.54
2018-08-11T21:28:26.634Z,16.49
2018-08-11T21:30:56.456Z,16.43
2018-08-11T21:33:26.079Z,16.38
2018-08-11T21:35:55.757Z,16.32
2018-08-11T21:38:25.534Z,16.27
2018-08-11T21:40:55.246Z,16.23
2018-08-11T21:43:24.977Z,16.21
2018-08-11T21:45:54.714Z,16.19
2018-08-11T21:48:24.556Z,16.17
2018-08-11T21:50:54.275Z,16.14
2018-08-11T21:53:24.114Z,16.13
2018-08-11T21:55:53.771Z,16.09
2018-08-11T21:58:23.497Z,16.07
2018-08-11T22:00:57.615Z,16.05
2018-08-11T22:03:27.256Z,16.03
2018-08-11T22:05:56.979Z,15.98
2018-08-11T22:08:26.654Z,15.98
2018-08-11T22:10:56.402Z,15.95
2018-08-11T22:13:26.111Z,15.92
2018-08-11T22:15:55.825Z,15.92
2018-08-11T22:18:25.426Z,15.91
2018-08-11T22:20:55.089Z,15.92
2018-08-11T22:23:24.755Z,15.91
2018-08-11T22:25:54.551Z,15.90
2018-08-11T22:28:24.295Z,15.87
2018-08-11T22:30:54.354Z,15.83
2018-08-11T22:33:24.038Z,15.81
2018-08-11T22:35:53.753Z,15.80
2018-08-11T22:38:23.738Z,15.82
2018-08-11T22:40:53.397Z,15.82
2018-08-11T22:43:23.064Z,15.81
2018-08-11T22:45:52.707Z,15.83
2018-08-11T22:48:22.319Z,15.84
2018-08-11T22:50:51.940Z,15.83
2018-08-11T22:53:21.610Z,15.81
2018-08-11T22:55:51.234Z,15.80
2018-08-11T22:58:20.914Z,15.80
2018-08-11T23:00:50.525Z,15.78
2018-08-11T23:03:20.155Z,15.78
2018-08-11T23:05:49.836Z,15.75
2018-08-11T23:08:19.558Z,15.69
2018-08-11T23:10:49.425Z,15.66
2018-08-11T23:13:19.056Z,15.63
2018-08-11T23:15:48.678Z,15.60
2018-08-11T23:18:18.292Z,15.57
2018-08-11T23:20:48.191Z,15.57
2018-08-11T23:23:17.858Z,15.54
2018-08-11T23:25:47.666Z,15.51
2018-08-11T23:28:17.712Z,15.49
2018-08-11T23:30:47.406Z,15.48
2018-08-11T23:33:17.138Z,15.45
2018-08-11T23:35:47.287Z,15.45
2018-08-11T23:38:16.976Z,15.42
2018-08-11T23:40:46.571Z,15.36
2018-08-11T23:43:16.294Z,15.27
2018-08-11T23:45:46.168Z,15.22
2018-08-11T23:48:15.806Z,15.21
2018-08-11T23:50:45.434Z,15.21
2018-08-11T23:53:15.081Z,15.22
2018-08-11T23:55:44.742Z,15.22
2018-08-11T23:58:14.347Z,15.20
